Krasnye Baki, Russia
Current Conditions -  °F | °C
As of 11:30 AM on Saturday 29 Nov 2014 (Local Time) from UWGG Reporting Station
Overcast Overcast  
Wind Chill:   Ceiling: 600
Heat Index: 18°   Visibility: 6mi
Dew Point: 18°   Wind: 7mph
Humidity: 100%   Direction: 140°SE
Pressure: 30.68"   Gusts: NA
Location:  57.13°N, 45.17°E
Report Text: UWGG 290830Z 14003MPS 9000 OVC006 M08/M08 Q1039 TEMPO 1200 FZDZOVC005 36450240 RMK QFE772
Loading
Personal Weather Stations






























Interactive Weather Map New forecast layout! Learn more

10-Day Weather Forecast

Advertisements
Track Severe Weather on mobile